KCQM

Details ICAO KCQM
Name COOK MUNI
Region United States
Timezone America/Chicago (UTC-6.0)
Plans Departing 1
Arriving 1
Stats Elevation 1,327 ft / 404 m (AMSL)
Location 47.821905° -92.689425°
Runways 1
Magnetic Variation 0.646° W
Sunrise 2017-12-13 13:53:12 UTC / 2017-12-13 07:53:12 Local
Sunset 2017-12-13 22:19:48 UTC / 2017-12-13 16:19:48 Local
Advertisement - Login to hide

Runways

ID Width Length Bearing (true) Bearing (mag) Surface Threshold Offset Overrun Length
13 75 ft / 23 m 3,198 ft / 975 m 137.07° 137.72° Asphalt 0 ft / 0 m 0 ft / 0 m
31 75 ft / 23 m 3,198 ft / 975 m 317.08° 317.73° Asphalt 0 ft / 0 m 0 ft / 0 m

Map

Weather


0- 5 10 15 20 25 30 35+ Temperature / ° C

Clouds and Precipitation
Forecast for 2017-12-13 12:00 UTC. Updated an hour ago

Ground ~20,000 ft ~40,000 ft Winds

METAR

KCQM 131035Z AUTO 00000KT 5SM -SN OVC020 M08/M09 A2944 RMK AO2

TAF

Not found

Frequencies

Recorded 118.17 MHz AWOS 3
Unicom 122.90 MHz CTAF
Warning: Do not use this data for real-world aviation or navigation. No guarantee of current accuracy is given.